sensor_id;sensor_type;location;lat;lon;timestamp;temperature;humidity
23729;DHT22;12045;60.214;24.724;2022-10-31T00:01:24;3.50;99.90
23729;DHT22;12045;60.214;24.724;2022-10-31T00:03:53;3.60;99.90
23729;DHT22;12045;60.214;24.724;2022-10-31T00:06:21;3.60;99.90
23729;DHT22;12045;60.214;24.724;2022-10-31T00:09:00;3.50;99.90
23729;DHT22;12045;60.214;24.724;2022-10-31T00:11:28;3.60;99.90
23729;DHT22;12045;60.214;24.724;2022-10-31T00:13:57;3.60;99.90
23729;DHT22;12045;60.214;24.724;2022-10-31T00:16:25;2.70;99.90
23729;DHT22;12045;60.214;24.724;2022-10-31T00:18:59;3.60;99.90
23729;DHT22;12045;60.214;24.724;2022-10-31T00:21:28;3.50;99.90
23729;DHT22;12045;60.214;24.724;2022-10-31T00:23:57;3.60;99.90
23729;DHT22;12045;60.214;24.724;2022-10-31T00:26:27;3.60;99.90
23729;DHT22;12045;60.214;24.724;2022-10-31T00:28:55;3.60;99.90
23729;DHT22;12045;60.214;24.724;2022-10-31T00:31:23;3.50;99.90
23729;DHT22;12045;60.214;24.724;2022-10-31T00:33:51;3.50;99.90
23729;DHT22;12045;60.214;24.724;2022-10-31T00:36:19;3.80;99.90
23729;DHT22;12045;60.214;24.724;2022-10-31T00:38:47;3.60;99.90
23729;DHT22;12045;60.214;24.724;2022-10-31T00:41:16;3.90;99.90
23729;DHT22;12045;60.214;24.724;2022-10-31T00:43:44;3.60;99.90
23729;DHT22;12045;60.214;24.724;2022-10-31T00:46:12;3.60;99.90
23729;DHT22;12045;60.214;24.724;2022-10-31T00:48:40;3.90;99.90
23729;DHT22;12045;60.214;24.724;2022-10-31T00:51:09;3.60;99.90
23729;DHT22;12045;60.214;24.724;2022-10-31T00:53:37;3.70;99.90
23729;DHT22;12045;60.214;24.724;2022-10-31T00:56:05;3.30;99.90
23729;DHT22;12045;60.214;24.724;2022-10-31T00:58:33;3.70;99.90
23729;DHT22;12045;60.214;24.724;2022-10-31T01:01:00;3.70;99.90
23729;DHT22;12045;60.214;24.724;2022-10-31T01:03:30;3.90;99.90
23729;DHT22;12045;60.214;24.724;2022-10-31T01:06:07;3.60;99.90
23729;DHT22;12045;60.214;24.724;2022-10-31T01:08:36;4.00;99.90
23729;DHT22;12045;60.214;24.724;2022-10-31T01:11:14;3.40;99.90
23729;DHT22;12045;60.214;24.724;2022-10-31T01:13:42;3.30;99.90
23729;DHT22;12045;60.214;24.724;2022-10-31T01:16:13;3.20;99.90
23729;DHT22;12045;60.214;24.724;2022-10-31T01:18:40;3.20;99.90
23729;DHT22;12045;60.214;24.724;2022-10-31T01:21:15;3.20;99.90
23729;DHT22;12045;60.214;24.724;2022-10-31T01:23:43;3.20;99.90
23729;DHT22;12045;60.214;24.724;2022-10-31T01:26:15;3.20;99.90
23729;DHT22;12045;60.214;24.724;2022-10-31T01:28:52;3.10;99.90
23729;DHT22;12045;60.214;24.724;2022-10-31T01:31:22;3.10;99.90
23729;DHT22;12045;60.214;24.724;2022-10-31T01:33:51;2.90;99.90
23729;DHT22;12045;60.214;24.724;2022-10-31T01:36:21;2.90;99.90
23729;DHT22;12045;60.214;24.724;2022-10-31T01:38:51;2.80;99.90
23729;DHT22;12045;60.214;24.724;2022-10-31T01:41:24;2.70;99.90
23729;DHT22;12045;60.214;24.724;2022-10-31T01:43:58;3.30;99.90
23729;DHT22;12045;60.214;24.724;2022-10-31T01:46:31;2.70;99.90
23729;DHT22;12045;60.214;24.724;2022-10-31T01:49:04;2.70;99.90
23729;DHT22;12045;60.214;24.724;2022-10-31T01:51:36;3.80;99.90
23729;DHT22;12045;60.214;24.724;2022-10-31T01:54:08;2.80;99.90
23729;DHT22;12045;60.214;24.724;2022-10-31T01:56:40;2.90;99.90
23729;DHT22;12045;60.214;24.724;2022-10-31T01:59:11;2.90;99.90
23729;DHT22;12045;60.214;24.724;2022-10-31T02:01:40;2.90;99.90
23729;DHT22;12045;60.214;24.724;2022-10-31T02:04:07;3.10;99.90
23729;DHT22;12045;60.214;24.724;2022-10-31T02:06:40;3.10;99.90
23729;DHT22;12045;60.214;24.724;2022-10-31T02:09:10;4.30;99.90
23729;DHT22;12045;60.214;24.724;2022-10-31T02:11:40;4.80;99.90
23729;DHT22;12045;60.214;24.724;2022-10-31T02:14:08;4.00;99.90
23729;DHT22;12045;60.214;24.724;2022-10-31T02:16:35;3.10;99.90
23729;DHT22;12045;60.214;24.724;2022-10-31T02:19:06;3.80;99.90
23729;DHT22;12045;60.214;24.724;2022-10-31T02:21:47;3.60;99.90
23729;DHT22;12045;60.214;24.724;2022-10-31T02:24:42;3.00;99.90
23729;DHT22;12045;60.214;24.724;2022-10-31T02:27:48;2.70;99.90
23729;DHT22;12045;60.214;24.724;2022-10-31T02:30:28;2.50;99.90
23729;DHT22;12045;60.214;24.724;2022-10-31T02:36:17;2.70;99.90
23729;DHT22;12045;60.214;24.724;2022-10-31T02:41:48;3.20;99.90
23729;DHT22;12045;60.214;24.724;2022-10-31T02:45:26;3.20;99.90
23729;DHT22;12045;60.214;24.724;2022-10-31T02:47:27;2.70;99.90
23729;DHT22;12045;60.214;24.724;2022-10-31T02:50:22;3.30;99.90
23729;DHT22;12045;60.214;24.724;2022-10-31T02:52:51;2.50;99.90
23729;DHT22;12045;60.214;24.724;2022-10-31T02:58:02;3.20;99.90
23729;DHT22;12045;60.214;24.724;2022-10-31T03:00:39;2.50;99.90
23729;DHT22;12045;60.214;24.724;2022-10-31T03:06:08;1.60;99.90
23729;DHT22;12045;60.214;24.724;2022-10-31T03:08:55;3.10;99.90
23729;DHT22;12045;60.214;24.724;2022-10-31T03:11:29;2.60;99.90
23729;DHT22;12045;60.214;24.724;2022-10-31T03:14:00;3.10;99.90
23729;DHT22;12045;60.214;24.724;2022-10-31T03:16:50;2.50;99.90
23729;DHT22;12045;60.214;24.724;2022-10-31T03:19:27;2.90;99.90
23729;DHT22;12045;60.214;24.724;2022-10-31T03:22:02;2.30;99.90
23729;DHT22;12045;60.214;24.724;2022-10-31T03:24:36;2.40;99.90
23729;DHT22;12045;60.214;24.724;2022-10-31T03:27:06;2.40;99.90
23729;DHT22;12045;60.214;24.724;2022-10-31T03:29:36;3.50;99.90
23729;DHT22;12045;60.214;24.724;2022-10-31T03:32:14;3.80;99.90
23729;DHT22;12045;60.214;24.724;2022-10-31T03:34:44;2.40;99.90
23729;DHT22;12045;60.214;24.724;2022-10-31T03:37:15;4.20;99.90
23729;DHT22;12045;60.214;24.724;2022-10-31T03:39:45;3.70;99.90
23729;DHT22;12045;60.214;24.724;2022-10-31T03:42:21;4.00;99.90
23729;DHT22;12045;60.214;24.724;2022-10-31T03:44:55;3.20;99.90
23729;DHT22;12045;60.214;24.724;2022-10-31T03:47:25;4.60;99.90
23729;DHT22;12045;60.214;24.724;2022-10-31T03:49:53;4.50;99.90
23729;DHT22;12045;60.214;24.724;2022-10-31T03:52:47;3.20;99.90
23729;DHT22;12045;60.214;24.724;2022-10-31T03:55:25;2.40;99.90
23729;DHT22;12045;60.214;24.724;2022-10-31T03:58:12;2.50;99.90
23729;DHT22;12045;60.214;24.724;2022-10-31T04:00:44;2.60;99.90
23729;DHT22;12045;60.214;24.724;2022-10-31T04:03:17;2.50;99.90
23729;DHT22;12045;60.214;24.724;2022-10-31T04:05:47;3.50;99.90
23729;DHT22;12045;60.214;24.724;2022-10-31T04:08:20;2.40;99.90
23729;DHT22;12045;60.214;24.724;2022-10-31T04:10:49;2.40;99.90
23729;DHT22;12045;60.214;24.724;2022-10-31T04:13:23;3.60;99.90
23729;DHT22;12045;60.214;24.724;2022-10-31T04:15:52;4.70;99.90
23729;DHT22;12045;60.214;24.724;2022-10-31T04:18:25;4.30;99.90
23729;DHT22;12045;60.214;24.724;2022-10-31T04:21:01;3.80;99.90
23729;DHT22;12045;60.214;24.724;2022-10-31T04:23:29;3.40;99.90
23729;DHT22;12045;60.214;24.724;2022-10-31T04:25:57;2.70;99.90
23729;DHT22;12045;60.214;24.724;2022-10-31T04:28:25;3.20;99.90
23729;DHT22;12045;60.214;24.724;2022-10-31T04:30:54;3.00;99.90
23729;DHT22;12045;60.214;24.724;2022-10-31T04:33:21;2.70;99.90
23729;DHT22;12045;60.214;24.724;2022-10-31T04:35:49;2.00;99.90
23729;DHT22;12045;60.214;24.724;2022-10-31T04:38:16;1.80;99.90
23729;DHT22;12045;60.214;24.724;2022-10-31T04:40:45;1.80;99.90
23729;DHT22;12045;60.214;24.724;2022-10-31T04:43:12;1.80;99.90
23729;DHT22;12045;60.214;24.724;2022-10-31T04:45:40;4.60;99.90
23729;DHT22;12045;60.214;24.724;2022-10-31T04:48:07;4.00;99.90
23729;DHT22;12045;60.214;24.724;2022-10-31T04:50:35;3.70;99.90
23729;DHT22;12045;60.214;24.724;2022-10-31T04:53:02;4.60;99.90
23729;DHT22;12045;60.214;24.724;2022-10-31T04:55:30;4.40;99.90
23729;DHT22;12045;60.214;24.724;2022-10-31T04:57:57;4.00;99.90
23729;DHT22;12045;60.214;24.724;2022-10-31T05:00:25;3.80;99.90
23729;DHT22;12045;60.214;24.724;2022-10-31T05:02:57;4.90;99.90
23729;DHT22;12045;60.214;24.724;2022-10-31T05:05:31;5.00;99.90
23729;DHT22;12045;60.214;24.724;2022-10-31T05:07:59;3.00;99.90
23729;DHT22;12045;60.214;24.724;2022-10-31T05:10:28;3.20;99.90
23729;DHT22;12045;60.214;24.724;2022-10-31T05:13:00;3.30;99.90
23729;DHT22;12045;60.214;24.724;2022-10-31T05:15:29;1.90;99.90
23729;DHT22;12045;60.214;24.724;2022-10-31T05:17:56;3.30;99.90
23729;DHT22;12045;60.214;24.724;2022-10-31T05:20:27;3.90;99.90
23729;DHT22;12045;60.214;24.724;2022-10-31T05:22:56;3.50;99.90
23729;DHT22;12045;60.214;24.724;2022-10-31T05:25:26;2.70;99.90
23729;DHT22;12045;60.214;24.724;2022-10-31T05:27:54;3.20;99.90
23729;DHT22;12045;60.214;24.724;2022-10-31T05:30:25;2.40;99.90
23729;DHT22;12045;60.214;24.724;2022-10-31T05:32:54;1.60;99.90
23729;DHT22;12045;60.214;24.724;2022-10-31T05:35:25;2.90;99.90
23729;DHT22;12045;60.214;24.724;2022-10-31T05:37:53;3.00;99.90
23729;DHT22;12045;60.214;24.724;2022-10-31T05:40:21;4.20;99.90
23729;DHT22;12045;60.214;24.724;2022-10-31T05:42:54;3.60;99.90
23729;DHT22;12045;60.214;24.724;2022-10-31T05:45:22;1.50;99.90
23729;DHT22;12045;60.214;24.724;2022-10-31T05:48:00;2.30;99.90
23729;DHT22;12045;60.214;24.724;2022-10-31T05:50:30;2.30;99.90
23729;DHT22;12045;60.214;24.724;2022-10-31T05:53:03;2.50;99.90
23729;DHT22;12045;60.214;24.724;2022-10-31T05:55:31;2.20;99.90
23729;DHT22;12045;60.214;24.724;2022-10-31T05:57:59;2.90;99.90
23729;DHT22;12045;60.214;24.724;2022-10-31T06:00:28;2.40;99.90
23729;DHT22;12045;60.214;24.724;2022-10-31T06:03:05;2.40;99.90
23729;DHT22;12045;60.214;24.724;2022-10-31T06:05:33;2.40;99.90
23729;DHT22;12045;60.214;24.724;2022-10-31T06:08:01;3.90;99.90
23729;DHT22;12045;60.214;24.724;2022-10-31T06:10:29;2.30;99.90
23729;DHT22;12045;60.214;24.724;2022-10-31T06:13:15;3.10;99.90
23729;DHT22;12045;60.214;24.724;2022-10-31T06:18:21;2.20;99.90
23729;DHT22;12045;60.214;24.724;2022-10-31T06:20:50;2.20;99.90
23729;DHT22;12045;60.214;24.724;2022-10-31T06:23:23;2.10;99.90
23729;DHT22;12045;60.214;24.724;2022-10-31T06:25:51;3.00;99.90
23729;DHT22;12045;60.214;24.724;2022-10-31T06:28:19;3.70;99.90
23729;DHT22;12045;60.214;24.724;2022-10-31T06:30:50;2.80;99.90
23729;DHT22;12045;60.214;24.724;2022-10-31T06:33:18;2.50;99.90
23729;DHT22;12045;60.214;24.724;2022-10-31T06:35:46;1.90;99.90
23729;DHT22;12045;60.214;24.724;2022-10-31T06:38:17;2.60;99.90
23729;DHT22;12045;60.214;24.724;2022-10-31T06:40:47;3.70;99.90
23729;DHT22;12045;60.214;24.724;2022-10-31T06:43:18;3.70;99.90
23729;DHT22;12045;60.214;24.724;2022-10-31T06:45:46;2.70;99.90
23729;DHT22;12045;60.214;24.724;2022-10-31T06:48:17;4.50;99.90
23729;DHT22;12045;60.214;24.724;2022-10-31T06:50:50;2.40;99.90
23729;DHT22;12045;60.214;24.724;2022-10-31T06:53:28;2.60;99.90
23729;DHT22;12045;60.214;24.724;2022-10-31T06:55:58;4.80;99.90
23729;DHT22;12045;60.214;24.724;2022-10-31T06:58:26;2.00;99.90
23729;DHT22;12045;60.214;24.724;2022-10-31T07:00:54;2.70;99.90
23729;DHT22;12045;60.214;24.724;2022-10-31T07:03:23;4.50;99.90
23729;DHT22;12045;60.214;24.724;2022-10-31T07:05:50;3.10;99.90
23729;DHT22;12045;60.214;24.724;2022-10-31T07:08:19;3.10;99.90
23729;DHT22;12045;60.214;24.724;2022-10-31T07:10:55;3.90;99.90
23729;DHT22;12045;60.214;24.724;2022-10-31T07:13:26;3.00;99.90
23729;DHT22;12045;60.214;24.724;2022-10-31T07:15:59;4.50;99.90
23729;DHT22;12045;60.214;24.724;2022-10-31T07:18:27;3.60;99.90
23729;DHT22;12045;60.214;24.724;2022-10-31T07:21:01;3.80;99.90
23729;DHT22;12045;60.214;24.724;2022-10-31T07:23:29;3.40;99.90
23729;DHT22;12045;60.214;24.724;2022-10-31T07:26:02;4.00;99.90
23729;DHT22;12045;60.214;24.724;2022-10-31T07:28:35;3.90;99.90
23729;DHT22;12045;60.214;24.724;2022-10-31T07:31:09;3.90;99.90
23729;DHT22;12045;60.214;24.724;2022-10-31T07:33:48;4.00;99.90
23729;DHT22;12045;60.214;24.724;2022-10-31T07:36:20;5.00;99.90
23729;DHT22;12045;60.214;24.724;2022-10-31T07:38:49;4.40;99.90
23729;DHT22;12045;60.214;24.724;2022-10-31T07:41:21;4.60;99.90
23729;DHT22;12045;60.214;24.724;2022-10-31T07:43:56;4.80;99.90
23729;DHT22;12045;60.214;24.724;2022-10-31T07:46:26;4.80;99.90
23729;DHT22;12045;60.214;24.724;2022-10-31T07:49:21;4.90;99.90
23729;DHT22;12045;60.214;24.724;2022-10-31T07:51:56;4.80;99.90
23729;DHT22;12045;60.214;24.724;2022-10-31T07:54:29;5.10;99.90
23729;DHT22;12045;60.214;24.724;2022-10-31T07:57:17;4.60;99.90
23729;DHT22;12045;60.214;24.724;2022-10-31T07:59:51;5.10;99.90
23729;DHT22;12045;60.214;24.724;2022-10-31T08:02:22;4.10;99.90
23729;DHT22;12045;60.214;24.724;2022-10-31T08:05:02;4.30;99.90
23729;DHT22;12045;60.214;24.724;2022-10-31T08:07:40;4.40;99.90
23729;DHT22;12045;60.214;24.724;2022-10-31T08:10:10;4.50;99.90
23729;DHT22;12045;60.214;24.724;2022-10-31T08:13:07;6.10;99.90
23729;DHT22;12045;60.214;24.724;2022-10-31T08:15:44;5.30;99.90
23729;DHT22;12045;60.214;24.724;2022-10-31T08:18:18;5.50;99.90
23729;DHT22;12045;60.214;24.724;2022-10-31T08:20:50;5.10;99.90
23729;DHT22;12045;60.214;24.724;2022-10-31T08:23:34;3.70;99.90
23729;DHT22;12045;60.214;24.724;2022-10-31T08:26:05;4.80;99.90
23729;DHT22;12045;60.214;24.724;2022-10-31T08:28:40;4.30;99.90
23729;DHT22;12045;60.214;24.724;2022-10-31T08:31:16;5.00;99.90
23729;DHT22;12045;60.214;24.724;2022-10-31T08:33:59;5.10;99.90
23729;DHT22;12045;60.214;24.724;2022-10-31T08:36:30;6.00;99.90
23729;DHT22;12045;60.214;24.724;2022-10-31T08:39:15;5.50;99.90
23729;DHT22;12045;60.214;24.724;2022-10-31T08:41:49;5.70;99.90
23729;DHT22;12045;60.214;24.724;2022-10-31T08:44:27;5.90;99.90
23729;DHT22;12045;60.214;24.724;2022-10-31T08:50:30;6.50;99.90
23729;DHT22;12045;60.214;24.724;2022-10-31T08:53:18;6.40;99.90
23729;DHT22;12045;60.214;24.724;2022-10-31T08:56:17;6.50;99.90
23729;DHT22;12045;60.214;24.724;2022-10-31T08:59:29;7.10;99.90
23729;DHT22;12045;60.214;24.724;2022-10-31T09:02:07;6.70;99.90
23729;DHT22;12045;60.214;24.724;2022-10-31T09:04:43;6.80;99.90
23729;DHT22;12045;60.214;24.724;2022-10-31T09:07:15;7.00;99.90
23729;DHT22;12045;60.214;24.724;2022-10-31T09:09:47;7.50;99.90
23729;DHT22;12045;60.214;24.724;2022-10-31T09:12:15;7.40;99.90
23729;DHT22;12045;60.214;24.724;2022-10-31T09:14:46;7.20;99.90
23729;DHT22;12045;60.214;24.724;2022-10-31T09:17:26;7.20;99.90
23729;DHT22;12045;60.214;24.724;2022-10-31T09:20:08;7.20;99.90
23729;DHT22;12045;60.214;24.724;2022-10-31T09:23:23;7.30;99.90
23729;DHT22;12045;60.214;24.724;2022-10-31T09:26:02;7.30;99.90
23729;DHT22;12045;60.214;24.724;2022-10-31T09:28:42;7.40;99.90
23729;DHT22;12045;60.214;24.724;2022-10-31T09:31:15;7.40;99.90
23729;DHT22;12045;60.214;24.724;2022-10-31T09:33:47;7.40;99.90
23729;DHT22;12045;60.214;24.724;2022-10-31T09:36:14;7.40;99.90
23729;DHT22;12045;60.214;24.724;2022-10-31T09:38:42;7.50;99.90
23729;DHT22;12045;60.214;24.724;2022-10-31T09:41:27;7.50;99.90
23729;DHT22;12045;60.214;24.724;2022-10-31T09:49:48;7.40;99.90
23729;DHT22;12045;60.214;24.724;2022-10-31T09:52:33;7.50;99.90
23729;DHT22;12045;60.214;24.724;2022-10-31T09:55:16;7.60;99.90
23729;DHT22;12045;60.214;24.724;2022-10-31T09:57:46;7.60;99.90
23729;DHT22;12045;60.214;24.724;2022-10-31T10:00:20;8.10;99.90
23729;DHT22;12045;60.214;24.724;2022-10-31T10:05:36;8.00;99.90
23729;DHT22;12045;60.214;24.724;2022-10-31T10:10:47;6.10;99.90
23729;DHT22;12045;60.214;24.724;2022-10-31T10:13:41;7.90;99.90
23729;DHT22;12045;60.214;24.724;2022-10-31T10:16:36;7.90;99.90
23729;DHT22;12045;60.214;24.724;2022-10-31T10:30:16;8.20;99.90
23729;DHT22;12045;60.214;24.724;2022-10-31T10:32:53;6.80;99.90
23729;DHT22;12045;60.214;24.724;2022-10-31T10:35:29;8.00;99.90
23729;DHT22;12045;60.214;24.724;2022-10-31T10:38:36;8.20;99.90
23729;DHT22;12045;60.214;24.724;2022-10-31T10:41:18;8.20;99.90
23729;DHT22;12045;60.214;24.724;2022-10-31T10:43:49;8.40;99.90
23729;DHT22;12045;60.214;24.724;2022-10-31T11:01:31;8.50;99.90
23729;DHT22;12045;60.214;24.724;2022-10-31T11:04:24;8.50;99.90
23729;DHT22;12045;60.214;24.724;2022-10-31T11:07:07;8.50;99.90
23729;DHT22;12045;60.214;24.724;2022-10-31T11:09:42;8.50;99.90
23729;DHT22;12045;60.214;24.724;2022-10-31T11:12:19;8.70;99.90
23729;DHT22;12045;60.214;24.724;2022-10-31T11:14:53;8.60;99.90
23729;DHT22;12045;60.214;24.724;2022-10-31T11:20:37;8.80;99.90
23729;DHT22;12045;60.214;24.724;2022-10-31T11:23:22;8.80;99.90
23729;DHT22;12045;60.214;24.724;2022-10-31T11:26:04;10.70;99.90
23729;DHT22;12045;60.214;24.724;2022-10-31T11:28:33;8.50;99.90
23729;DHT22;12045;60.214;24.724;2022-10-31T11:31:11;8.60;99.90
23729;DHT22;12045;60.214;24.724;2022-10-31T11:33:46;8.80;99.90
23729;DHT22;12045;60.214;24.724;2022-10-31T11:36:23;8.40;99.90
23729;DHT22;12045;60.214;24.724;2022-10-31T11:38:52;8.80;99.90
23729;DHT22;12045;60.214;24.724;2022-10-31T11:41:34;8.80;99.90
23729;DHT22;12045;60.214;24.724;2022-10-31T11:46:47;8.80;99.90
23729;DHT22;12045;60.214;24.724;2022-10-31T11:49:37;8.70;99.90
23729;DHT22;12045;60.214;24.724;2022-10-31T11:54:53;8.60;99.90
23729;DHT22;12045;60.214;24.724;2022-10-31T11:57:33;7.10;99.90
23729;DHT22;12045;60.214;24.724;2022-10-31T12:00:04;8.50;99.90
23729;DHT22;12045;60.214;24.724;2022-10-31T12:02:36;8.60;99.90
23729;DHT22;12045;60.214;24.724;2022-10-31T12:05:21;8.00;99.90
23729;DHT22;12045;60.214;24.724;2022-10-31T12:07:50;8.40;99.90
23729;DHT22;12045;60.214;24.724;2022-10-31T12:37:19;8.20;99.90
23729;DHT22;12045;60.214;24.724;2022-10-31T12:40:06;8.10;99.90
23729;DHT22;12045;60.214;24.724;2022-10-31T12:45:55;8.10;99.90
23729;DHT22;12045;60.214;24.724;2022-10-31T12:51:09;8.20;99.90
23729;DHT22;12045;60.214;24.724;2022-10-31T12:59:38;8.30;99.90
23729;DHT22;12045;60.214;24.724;2022-10-31T13:02:21;8.80;99.90
23729;DHT22;12045;60.214;24.724;2022-10-31T13:04:58;8.40;99.90
23729;DHT22;12045;60.214;24.724;2022-10-31T13:07:41;8.00;99.90
23729;DHT22;12045;60.214;24.724;2022-10-31T13:10:18;8.30;99.90
23729;DHT22;12045;60.214;24.724;2022-10-31T13:12:49;8.70;99.90
23729;DHT22;12045;60.214;24.724;2022-10-31T13:15:28;9.10;99.90
23729;DHT22;12045;60.214;24.724;2022-10-31T13:18:00;8.30;99.90
23729;DHT22;12045;60.214;24.724;2022-10-31T13:20:37;8.30;99.90
23729;DHT22;12045;60.214;24.724;2022-10-31T13:23:28;8.30;99.90
23729;DHT22;12045;60.214;24.724;2022-10-31T13:26:33;8.30;99.90
23729;DHT22;12045;60.214;24.724;2022-10-31T13:31:41;8.30;99.90
23729;DHT22;12045;60.214;24.724;2022-10-31T13:37:04;8.30;99.90
23729;DHT22;12045;60.214;24.724;2022-10-31T13:39:46;8.50;99.90
23729;DHT22;12045;60.214;24.724;2022-10-31T13:45:23;8.30;99.90
23729;DHT22;12045;60.214;24.724;2022-10-31T13:50:55;8.30;99.90
23729;DHT22;12045;60.214;24.724;2022-10-31T13:53:36;8.30;99.90
23729;DHT22;12045;60.214;24.724;2022-10-31T13:56:32;8.30;99.90
23729;DHT22;12045;60.214;24.724;2022-10-31T13:59:19;8.30;99.90
23729;DHT22;12045;60.214;24.724;2022-10-31T14:01:59;8.40;99.90
23729;DHT22;12045;60.214;24.724;2022-10-31T14:04:44;8.30;99.90
23729;DHT22;12045;60.214;24.724;2022-10-31T14:07:15;8.30;99.90
23729;DHT22;12045;60.214;24.724;2022-10-31T14:14:58;9.20;99.90
23729;DHT22;12045;60.214;24.724;2022-10-31T14:17:29;8.40;99.90
23729;DHT22;12045;60.214;24.724;2022-10-31T14:22:38;8.40;99.90
23729;DHT22;12045;60.214;24.724;2022-10-31T14:25:31;8.40;99.90
23729;DHT22;12045;60.214;24.724;2022-10-31T14:28:01;8.40;99.90
23729;DHT22;12045;60.214;24.724;2022-10-31T14:30:31;8.50;99.90
23729;DHT22;12045;60.214;24.724;2022-10-31T14:33:00;8.50;99.90
23729;DHT22;12045;60.214;24.724;2022-10-31T14:36:04;8.50;99.90
23729;DHT22;12045;60.214;24.724;2022-10-31T14:38:39;9.50;99.90
23729;DHT22;12045;60.214;24.724;2022-10-31T14:41:28;8.50;99.90
23729;DHT22;12045;60.214;24.724;2022-10-31T14:46:45;8.50;99.90
23729;DHT22;12045;60.214;24.724;2022-10-31T14:51:52;8.60;99.90
23729;DHT22;12045;60.214;24.724;2022-10-31T14:54:32;8.50;99.90
23729;DHT22;12045;60.214;24.724;2022-10-31T14:57:06;8.50;99.90
23729;DHT22;12045;60.214;24.724;2022-10-31T14:59:45;8.50;99.90
23729;DHT22;12045;60.214;24.724;2022-10-31T15:03:03;8.60;99.90
23729;DHT22;12045;60.214;24.724;2022-10-31T15:05:34;8.70;99.90
23729;DHT22;12045;60.214;24.724;2022-10-31T15:08:03;9.50;99.90
23729;DHT22;12045;60.214;24.724;2022-10-31T15:10:32;8.50;99.90
23729;DHT22;12045;60.214;24.724;2022-10-31T15:13:21;8.40;99.90
23729;DHT22;12045;60.214;24.724;2022-10-31T15:15:54;8.20;99.90
23729;DHT22;12045;60.214;24.724;2022-10-31T15:18:26;8.50;99.90
23729;DHT22;12045;60.214;24.724;2022-10-31T15:20:56;8.50;99.90
23729;DHT22;12045;60.214;24.724;2022-10-31T15:23:28;8.50;99.90
23729;DHT22;12045;60.214;24.724;2022-10-31T15:26:00;8.50;99.90
23729;DHT22;12045;60.214;24.724;2022-10-31T15:28:29;8.50;99.90
23729;DHT22;12045;60.214;24.724;2022-10-31T15:31:00;8.60;99.90
23729;DHT22;12045;60.214;24.724;2022-10-31T15:33:30;8.60;99.90
23729;DHT22;12045;60.214;24.724;2022-10-31T15:36:04;8.50;99.90
23729;DHT22;12045;60.214;24.724;2022-10-31T15:38:38;9.20;99.90
23729;DHT22;12045;60.214;24.724;2022-10-31T15:41:33;8.60;99.90
23729;DHT22;12045;60.214;24.724;2022-10-31T15:44:24;8.60;99.90
23729;DHT22;12045;60.214;24.724;2022-10-31T15:47:01;8.60;99.90
23729;DHT22;12045;60.214;24.724;2022-10-31T15:49:47;8.60;99.90
23729;DHT22;12045;60.214;24.724;2022-10-31T15:52:32;8.70;99.90
23729;DHT22;12045;60.214;24.724;2022-10-31T15:55:25;8.70;99.90
23729;DHT22;12045;60.214;24.724;2022-10-31T15:57:58;8.70;99.90
23729;DHT22;12045;60.214;24.724;2022-10-31T16:00:30;8.70;99.90
23729;DHT22;12045;60.214;24.724;2022-10-31T16:03:06;8.70;99.90
23729;DHT22;12045;60.214;24.724;2022-10-31T16:05:45;8.90;99.90
23729;DHT22;12045;60.214;24.724;2022-10-31T16:13:30;8.80;99.90
23729;DHT22;12045;60.214;24.724;2022-10-31T16:16:02;8.80;99.90
23729;DHT22;12045;60.214;24.724;2022-10-31T16:18:51;8.80;99.90
23729;DHT22;12045;60.214;24.724;2022-10-31T16:21:38;8.80;99.90
23729;DHT22;12045;60.214;24.724;2022-10-31T16:24:15;8.90;99.90
23729;DHT22;12045;60.214;24.724;2022-10-31T16:26:51;8.90;99.90
23729;DHT22;12045;60.214;24.724;2022-10-31T16:29:33;8.90;99.90
23729;DHT22;12045;60.214;24.724;2022-10-31T16:32:01;8.90;99.90
23729;DHT22;12045;60.214;24.724;2022-10-31T16:34:29;8.90;99.90
23729;DHT22;12045;60.214;24.724;2022-10-31T16:36:56;8.90;99.90
23729;DHT22;12045;60.214;24.724;2022-10-31T16:39:24;8.90;99.90
23729;DHT22;12045;60.214;24.724;2022-10-31T16:41:54;9.00;99.90
23729;DHT22;12045;60.214;24.724;2022-10-31T16:44:26;9.00;99.90
23729;DHT22;12045;60.214;24.724;2022-10-31T16:49:33;9.00;99.90
23729;DHT22;12045;60.214;24.724;2022-10-31T16:52:01;9.00;99.90
23729;DHT22;12045;60.214;24.724;2022-10-31T16:54:29;9.10;99.90
23729;DHT22;12045;60.214;24.724;2022-10-31T16:56:59;9.10;99.90
23729;DHT22;12045;60.214;24.724;2022-10-31T16:59:27;9.10;99.90
23729;DHT22;12045;60.214;24.724;2022-10-31T17:01:55;9.10;99.90
23729;DHT22;12045;60.214;24.724;2022-10-31T17:04:23;9.20;99.90
23729;DHT22;12045;60.214;24.724;2022-10-31T17:06:50;9.20;99.90
23729;DHT22;12045;60.214;24.724;2022-10-31T17:09:18;9.40;99.90
23729;DHT22;12045;60.214;24.724;2022-10-31T17:11:49;9.30;99.90
23729;DHT22;12045;60.214;24.724;2022-10-31T17:14:18;9.20;99.90
23729;DHT22;12045;60.214;24.724;2022-10-31T17:16:45;9.40;99.90
23729;DHT22;12045;60.214;24.724;2022-10-31T17:19:13;10.10;99.90
23729;DHT22;12045;60.214;24.724;2022-10-31T17:21:41;9.30;99.90
23729;DHT22;12045;60.214;24.724;2022-10-31T17:24:13;9.40;99.90
23729;DHT22;12045;60.214;24.724;2022-10-31T17:26:41;9.40;99.90
23729;DHT22;12045;60.214;24.724;2022-10-31T17:29:09;9.40;99.90
23729;DHT22;12045;60.214;24.724;2022-10-31T17:31:36;9.30;99.90
23729;DHT22;12045;60.214;24.724;2022-10-31T17:34:05;9.30;99.90
23729;DHT22;12045;60.214;24.724;2022-10-31T17:36:35;9.30;99.90
23729;DHT22;12045;60.214;24.724;2022-10-31T17:39:03;9.30;99.90
23729;DHT22;12045;60.214;24.724;2022-10-31T17:41:33;9.40;99.90
23729;DHT22;12045;60.214;24.724;2022-10-31T17:44:01;10.20;99.90
23729;DHT22;12045;60.214;24.724;2022-10-31T17:46:28;9.40;99.90
23729;DHT22;12045;60.214;24.724;2022-10-31T17:48:56;9.30;99.90
23729;DHT22;12045;60.214;24.724;2022-10-31T17:51:24;9.40;99.90
23729;DHT22;12045;60.214;24.724;2022-10-31T17:53:51;9.40;99.90
23729;DHT22;12045;60.214;24.724;2022-10-31T17:56:19;10.10;99.90
23729;DHT22;12045;60.214;24.724;2022-10-31T17:58:46;9.30;99.90
23729;DHT22;12045;60.214;24.724;2022-10-31T18:01:15;9.30;99.90
23729;DHT22;12045;60.214;24.724;2022-10-31T18:03:44;9.30;99.90
23729;DHT22;12045;60.214;24.724;2022-10-31T18:06:12;9.30;99.90
23729;DHT22;12045;60.214;24.724;2022-10-31T18:08:43;9.30;99.90
23729;DHT22;12045;60.214;24.724;2022-10-31T18:11:15;9.40;99.90
23729;DHT22;12045;60.214;24.724;2022-10-31T18:13:42;9.40;99.90
23729;DHT22;12045;60.214;24.724;2022-10-31T18:16:15;10.30;99.90
23729;DHT22;12045;60.214;24.724;2022-10-31T18:18:44;9.40;99.90
23729;DHT22;12045;60.214;24.724;2022-10-31T18:21:12;9.40;99.90
23729;DHT22;12045;60.214;24.724;2022-10-31T18:23:40;9.40;99.90
23729;DHT22;12045;60.214;24.724;2022-10-31T18:26:07;9.40;99.90
23729;DHT22;12045;60.214;24.724;2022-10-31T18:28:36;9.40;99.90